Terminal Aerodrome Forecast
Issued by NWS Lake Charles, LA

Home | Current Version | Previous Version | Text Only | Print | Product List | Glossary On
Versions: 1 2 3 4 5 6 7 8 9 10 11 12 13 14
885
FTUS44 KLCH 220531 AAA
TAFAEX
TAF AMD
KAEX 220531Z 2206/2306 13010KT P6SM VCSH SCT009 BKN050
      TEMPO 2206/2209 BKN009
     FM220900 16007KT P6SM VCSH BKN025
     FM221400 18008KT P6SM VCTS OVC025CB
      TEMPO 2214/2218 1SM +TSRA OVC015CB
     FM222000 32008KT P6SM BKN100
     FM230200 34010KT P6SM SCT100=

USA.gov is the U.S. government's official web portal to all federal, state and local government web resources and services.